Tillabery, Niger
Current Conditions -  °F | °C
As of 4:00 PM on Sunday 21 Dec 2014 (Local Time) from DRRN Reporting Station
Clear Clear  
Wind Chill: 91°   Ceiling: Unl
Heat Index: 91°   Visibility: 4mi
Dew Point: 25°   Wind: 9mph
Humidity: 9%   Direction: 110°ESE
Pressure: 29.88"   Gusts: NA
Location:  14.21°N, 1.45°E
Report Text: DRRN 211500Z 11008KT 080V150 6000 NSC 33/M04 Q1012 NOSIG
Loading
Personal Weather Stations






























Interactive Weather Map New forecast layout! Learn more

10-Day Weather Forecast

Advertisements
Track Severe Weather on mobile